Time;durP1;ratioP1;P1;durP2;ratioP2;P2;SDS_P1;SDS_P2;PMS_P1;PMS_P2;Temp;Humidity;BMP_temperature;BMP_pressure;BME280_temperature;BME280_humidity;BME280_pressure;Samples;Min_cycle;Max_cycle;Signal;HPM_P1;HPM_P2
2023/12/01 00:03:01;;;;;;;17.95;7.38;;;;;;;4.54;71.01;98889.50;10321267;28;20065;-62
2023/12/01 00:08:02;;;;;;;15.68;6.75;;;;;;;4.49;70.92;98888.34;10325075;28;20070;-61
2023/12/01 00:13:04;;;;;;;16.05;6.93;;;;;;;4.43;71.30;98908.47;10316842;28;20375;-61
2023/12/01 00:18:05;;;;;;;17.30;7.28;;;;;;;4.44;70.70;98907.47;10321220;28;20096;-60
2023/12/01 00:23:07;;;;;;;13.05;5.75;;;;;;;4.44;70.66;98918.09;10324533;28;20634;-60
2023/12/01 00:28:08;;;;;;;16.67;7.05;;;;;;;4.34;70.73;98907.69;10307024;28;20057;-60
2023/12/01 00:33:10;;;;;;;15.25;6.35;;;;;;;4.31;70.94;98896.56;10326793;28;20564;-60
2023/12/01 00:38:11;;;;;;;19.33;7.60;;;;;;;4.22;71.33;98871.00;10319458;28;20053;-58
2023/12/01 00:43:13;;;;;;;15.07;7.15;;;;;;;4.22;71.14;98900.25;10313540;28;20053;-59
2023/12/01 00:48:15;;;;;;;18.27;7.88;;;;;;;4.26;70.72;98915.69;10309517;28;20070;-59
2023/12/01 00:53:16;;;;;;;15.02;6.47;;;;;;;4.31;70.45;98920.50;10315287;28;20387;-60
2023/12/01 00:58:17;;;;;;;16.92;7.47;;;;;;;4.30;70.32;98908.19;10324846;28;20076;-59
2023/12/01 01:03:19;;;;;;;13.75;6.03;;;;;;;4.25;71.01;98916.69;10317059;28;20053;-60
2023/12/01 01:08:20;;;;;;;14.75;6.45;;;;;;;4.17;70.78;98938.00;10317539;28;20463;-59
2023/12/01 01:13:23;;;;;;;12.57;5.38;;;;;;;4.14;70.70;98920.53;10325635;28;20670;-60
2023/12/01 01:18:25;;;;;;;12.00;4.93;;;;;;;4.13;70.79;98916.22;10327186;28;20042;-58
2023/12/01 01:23:26;;;;;;;10.05;4.35;;;;;;;4.09;70.78;98914.91;10324910;28;20050;-59
2023/12/01 01:28:28;;;;;;;9.35;4.55;;;;;;;3.98;70.81;98928.56;10322329;28;20046;-58
2023/12/01 01:33:30;;;;;;;8.90;4.60;;;;;;;4.06;70.22;98912.56;10321411;28;20062;-59
2023/12/01 01:38:32;;;;;;;9.65;3.97;;;;;;;4.03;70.49;98898.78;10335678;28;20046;-58
2023/12/01 01:43:34;;;;;;;6.95;3.33;;;;;;;4.01;70.76;98920.25;10316273;28;20497;-59
2023/12/01 01:48:36;;;;;;;8.07;3.30;;;;;;;4.09;70.39;98948.66;10329489;28;20046;-58
2023/12/01 01:53:41;;;;;;;6.82;3.35;;;;;;;4.03;70.01;98950.16;10326514;28;20058;-58
2023/12/01 01:58:42;;;;;;;8.18;3.63;;;;;;;4.14;70.03;98947.13;10329522;28;20042;-59
2023/12/01 02:03:44;;;;;;;8.45;3.83;;;;;;;4.15;70.05;98932.84;10319859;28;20053;-58
2023/12/01 02:08:45;;;;;;;7.00;3.70;;;;;;;4.10;69.99;98929.84;10324561;28;20047;-58
2023/12/01 02:13:47;;;;;;;6.80;2.80;;;;;;;4.08;69.95;98931.84;10325490;28;20038;-58
2023/12/01 02:18:49;;;;;;;6.90;3.47;;;;;;;4.00;70.42;98912.44;10315107;28;20398;-60
2023/12/01 02:23:55;;;;;;;7.32;3.20;;;;;;;3.94;70.26;98924.56;10320352;28;20074;-59
2023/12/01 02:28:56;;;;;;;12.13;4.15;;;;;;;3.91;70.19;98917.78;10322614;28;20416;-58
2023/12/01 02:33:58;;;;;;;7.55;3.67;;;;;;;3.90;70.11;98939.19;10324809;28;20049;-59
2023/12/01 02:38:59;;;;;;;7.80;3.67;;;;;;;3.94;70.27;98944.00;10329925;28;20393;-58
2023/12/01 02:44:01;;;;;;;7.18;3.20;;;;;;;3.93;69.74;98965.44;10320571;28;20046;-59
2023/12/01 02:49:02;;;;;;;8.27;2.47;;;;;;;3.92;70.04;98959.28;10327329;28;20060;-59
2023/12/01 02:54:04;;;;;;;6.05;2.90;;;;;;;3.93;70.08;98954.78;10313977;28;20066;-58
2023/12/01 02:59:05;;;;;;;5.90;2.80;;;;;;;3.94;69.91;98941.34;10324715;28;20060;-60
2023/12/01 03:04:07;;;;;;;6.70;3.25;;;;;;;3.92;69.85;98948.66;10321348;28;20045;-58
2023/12/01 03:09:16;;;;;;;5.35;2.17;;;;;;;4.04;69.47;98957.13;10315864;28;20046;-59
2023/12/01 03:14:19;;;;;;;3.55;2.10;;;;;;;4.08;69.43;98944.31;10325182;28;20060;-59
2023/12/01 03:19:21;;;;;;;4.50;1.65;;;;;;;4.04;68.88;98953.63;10331009;28;20057;-60
2023/12/01 03:24:22;;;;;;;3.38;1.83;;;;;;;3.98;69.26;98961.28;10328463;28;20057;-58
2023/12/01 03:29:24;;;;;;;4.93;2.58;;;;;;;4.04;68.94;98953.63;10330590;28;20046;-59
2023/12/01 03:34:25;;;;;;;4.13;2.22;;;;;;;4.04;69.18;98959.78;10311575;28;20059;-59
2023/12/01 03:39:27;;;;;;;4.85;2.28;;;;;;;3.99;69.00;98951.50;10318822;28;20076;-59
2023/12/01 03:44:28;;;;;;;4.68;2.30;;;;;;;4.04;68.77;98948.31;10322290;28;20497;-59
2023/12/01 03:49:30;;;;;;;4.13;2.00;;;;;;;4.06;69.00;98955.13;10319271;28;20433;-59
2023/12/01 03:54:31;;;;;;;4.70;2.10;;;;;;;4.00;68.94;98947.00;10325778;28;20778;-59
2023/12/01 03:59:33;;;;;;;3.90;1.60;;;;;;;4.04;69.12;98945.66;10323523;28;20049;-58
2023/12/01 04:04:34;;;;;;;4.10;1.70;;;;;;;4.09;68.42;98946.81;10327937;28;20054;-60
2023/12/01 04:09:37;;;;;;;6.55;2.60;;;;;;;4.05;68.76;98958.78;10319541;28;20410;-60
2023/12/01 04:14:38;;;;;;;7.03;3.35;;;;;;;4.08;68.46;98971.72;10321181;28;20057;-60
2023/12/01 04:19:40;;;;;;;8.13;4.15;;;;;;;4.01;68.54;98967.25;10316822;28;20632;-60
2023/12/01 04:24:42;;;;;;;11.07;4.65;;;;;;;4.02;68.77;98969.75;10320913;28;20104;-60
2023/12/01 04:29:43;;;;;;;11.38;5.10;;;;;;;4.03;68.72;98979.41;10319848;28;20117;-60
2023/12/01 04:34:45;;;;;;;12.68;5.53;;;;;;;4.09;68.56;98970.75;10328127;28;20047;-60
2023/12/01 04:39:47;;;;;;;10.27;4.22;;;;;;;4.05;68.68;98969.44;10311626;28;20045;-60
2023/12/01 04:44:48;;;;;;;11.93;5.65;;;;;;;4.05;68.28;98964.09;10323004;28;20045;-60
2023/12/01 04:49:52;;;;;;;11.13;4.63;;;;;;;3.98;68.77;98957.78;10318836;28;20058;-60
2023/12/01 04:54:54;;;;;;;9.40;4.47;;;;;;;3.94;68.90;98965.28;10321682;28;20038;-60
2023/12/01 04:59:56;;;;;;;9.77;4.80;;;;;;;3.86;69.11;98969.78;10310852;28;20051;-60
2023/12/01 05:04:57;;;;;;;9.93;3.78;;;;;;;3.90;68.71;98969.25;10319581;28;20038;-60
2023/12/01 05:10:01;;;;;;;8.07;4.15;;;;;;;3.89;68.44;98974.75;10320366;28;20698;-60
2023/12/01 05:15:02;;;;;;;12.27;4.93;;;;;;;3.90;68.45;98979.06;10311344;28;20733;-60
2023/12/01 05:20:04;;;;;;;9.85;4.82;;;;;;;3.85;68.38;98978.72;10325659;28;20648;-58
2023/12/01 05:25:06;;;;;;;6.70;3.83;;;;;;;3.87;68.66;98982.03;10317727;28;20042;-59
2023/12/01 05:30:09;;;;;;;9.10;3.90;;;;;;;3.88;68.49;98983.72;10322950;28;20144;-59
2023/12/01 05:35:12;;;;;;;7.65;3.63;;;;;;;3.86;67.80;99001.66;10310792;28;20055;-59
2023/12/01 05:40:16;;;;;;;6.30;3.47;;;;;;;3.74;68.37;99009.97;10318231;28;20035;-58
2023/12/01 05:45:18;;;;;;;7.45;3.17;;;;;;;3.83;68.28;99024.09;10308233;28;20059;-59
2023/12/01 05:50:32;;;;;;;6.88;3.25;;;;;;;3.81;68.28;99015.47;10319540;28;20057;-59
2023/12/01 05:55:38;;;;;;;5.25;2.70;;;;;;;3.89;67.83;99033.22;10325609;28;20060;-59
2023/12/01 06:00:40;;;;;;;6.30;3.05;;;;;;;3.87;68.11;99035.22;10322473;28;20046;-59
2023/12/01 06:05:42;;;;;;;7.82;3.20;;;;;;;3.88;67.93;99035.06;10323076;28;20059;-61
2023/12/01 06:10:43;;;;;;;7.90;3.25;;;;;;;3.89;67.52;99033.22;10333866;28;20053;-60
2023/12/01 06:15:45;;;;;;;7.65;3.58;;;;;;;3.95;67.96;99043.22;10318338;28;20069;-60
2023/12/01 06:20:46;;;;;;;7.82;2.95;;;;;;;4.00;67.46;99056.00;10319994;28;20043;-60
2023/12/01 06:25:48;;;;;;;8.23;3.58;;;;;;;4.03;67.19;99050.34;10320495;28;20034;-60
2023/12/01 06:30:49;;;;;;;6.88;3.05;;;;;;;3.99;67.42;99076.44;10352181;28;20019;-72
2023/12/01 06:35:51;;;;;;;35.50;4.68;;;;;;;4.03;67.21;99072.47;10375300;28;20030;-72
2023/12/01 06:40:52;;;;;;;30.73;6.00;;;;;;;4.12;67.12;99086.56;10372364;28;20061;-72
2023/12/01 06:45:54;;;;;;;8.15;3.03;;;;;;;4.06;67.30;99074.75;10381168;28;20101;-73
2023/12/01 06:50:55;;;;;;;10.13;4.85;;;;;;;4.06;67.51;99072.09;10377889;28;20329;-73
2023/12/01 06:55:56;;;;;;;9.43;4.18;;;;;;;4.02;67.67;99077.94;10377258;28;20054;-73
2023/12/01 07:00:58;;;;;;;12.40;5.95;;;;;;;3.95;67.89;99088.41;10380556;28;20102;-70
2023/12/01 07:05:59;;;;;;;11.38;5.05;;;;;;;3.98;67.62;99098.69;10365892;28;20121;-64
2023/12/01 07:11:01;;;;;;;11.35;5.05;;;;;;;4.08;66.73;99091.38;10369694;28;20094;-64
2023/12/01 07:16:09;;;;;;;12.02;4.95;;;;;;;4.01;67.54;99095.72;10361917;28;20049;-63
2023/12/01 07:21:11;;;;;;;11.88;5.32;;;;;;;3.98;67.51;99104.00;10357650;28;20046;-64
2023/12/01 07:26:13;;;;;;;11.73;5.38;;;;;;;4.02;66.94;99101.88;10339646;28;20065;-65
2023/12/01 07:31:14;;;;;;;14.32;5.20;;;;;;;4.07;67.33;99103.03;10353416;28;20056;-64
2023/12/01 07:36:16;;;;;;;11.02;5.32;;;;;;;4.08;67.40;99111.84;10352794;28;20104;-64
2023/12/01 07:41:23;;;;;;;11.98;4.40;;;;;;;4.11;66.76;99119.50;10350825;28;20050;-64
2023/12/01 07:46:25;;;;;;;14.35;6.05;;;;;;;4.15;67.10;99118.16;10340914;28;20095;-63
2023/12/01 07:51:26;;;;;;;16.27;6.15;;;;;;;4.21;66.59;99122.00;10349893;28;20049;-64
2023/12/01 07:56:28;;;;;;;12.02;5.28;;;;;;;4.17;67.17;99118.84;10338958;28;20043;-63
2023/12/01 08:01:29;;;;;;;11.77;5.70;;;;;;;4.08;66.88;99111.84;10330507;28;20049;-65
2023/12/01 08:06:31;;;;;;;10.43;5.05;;;;;;;3.98;67.18;99115.47;10342437;28;20069;-64
2023/12/01 08:11:32;;;;;;;10.90;5.60;;;;;;;3.94;66.97;99113.31;10340303;28;20050;-64
2023/12/01 08:16:34;;;;;;;11.35;5.88;;;;;;;4.03;66.73;99124.78;10339264;28;20112;-63
2023/12/01 08:21:36;;;;;;;10.63;5.30;;;;;;;4.00;66.81;99122.47;10343249;28;20056;-65
2023/12/01 08:26:38;;;;;;;10.95;5.68;;;;;;;3.99;67.27;99132.28;10338876;28;20054;-65
2023/12/01 08:31:40;;;;;;;15.52;5.95;;;;;;;4.07;67.38;99148.25;10357843;28;20064;-64
2023/12/01 08:36:42;;;;;;;11.68;4.68;;;;;;;4.07;66.77;99158.88;10358807;28;20046;-65
2023/12/01 08:41:43;;;;;;;9.57;5.05;;;;;;;4.09;66.85;99154.22;10356656;28;20042;-65
2023/12/01 08:46:45;;;;;;;12.82;5.57;;;;;;;4.16;67.10;99157.88;10332356;28;20069;-68
2023/12/01 08:51:46;;;;;;;10.02;4.45;;;;;;;4.19;66.72;99151.41;10317367;28;20081;-68
2023/12/01 08:56:48;;;;;;;8.63;5.28;;;;;;;4.21;67.09;99159.22;10314507;28;20050;-68
2023/12/01 09:01:50;;;;;;;10.45;4.68;;;;;;;4.30;66.41;99150.25;10328664;28;20053;-67
2023/12/01 09:06:51;;;;;;;9.48;4.72;;;;;;;4.33;66.72;99161.41;10319346;28;20050;-68
2023/12/01 09:11:53;;;;;;;10.00;5.13;;;;;;;4.46;66.22;99158.22;10320284;28;20054;-68
2023/12/01 09:16:55;;;;;;;9.73;5.13;;;;;;;4.46;66.51;99168.03;10318195;28;20050;-66
2023/12/01 09:21:56;;;;;;;8.20;4.20;;;;;;;4.47;66.33;99180.38;10319630;28;20128;-69
2023/12/01 09:26:58;;;;;;;7.22;3.58;;;;;;;4.49;65.91;99176.53;10330035;28;20505;-66
2023/12/01 09:31:59;;;;;;;6.47;2.80;;;;;;;4.51;66.26;99169.22;10326009;28;20124;-68
2023/12/01 09:37:01;;;;;;;5.07;2.80;;;;;;;4.48;65.69;99177.53;10326421;28;20044;-69
2023/12/01 09:42:08;;;;;;;4.68;2.38;;;;;;;4.42;66.14;99172.84;10329841;28;20677;-68
2023/12/01 09:47:17;;;;;;;3.50;1.63;;;;;;;4.43;65.73;99160.41;10327752;28;20074;-68
2023/12/01 09:52:18;;;;;;;3.05;1.73;;;;;;;4.46;65.60;99178.69;10324119;28;20047;-68
2023/12/01 09:57:20;;;;;;;4.28;1.80;;;;;;;4.46;65.09;99168.88;10324793;28;20053;-67
2023/12/01 10:02:21;;;;;;;5.18;2.00;;;;;;;4.39;65.08;99164.41;10325429;28;20060;-67
2023/12/01 10:07:23;;;;;;;3.40;1.75;;;;;;;4.48;65.35;99174.03;10324849;28;20054;-65
2023/12/01 10:12:24;;;;;;;4.60;2.40;;;;;;;4.65;64.72;99178.34;10318449;28;20640;-68
2023/12/01 10:17:26;;;;;;;4.78;1.80;;;;;;;4.62;64.65;99186.69;10333426;28;20405;-68
2023/12/01 10:22:27;;;;;;;2.38;1.73;;;;;;;4.49;64.58;99187.19;10328778;28;20038;-68
2023/12/01 10:27:29;;;;;;;3.92;2.17;;;;;;;4.62;64.25;99186.69;10329733;28;20417;-68
2023/12/01 10:32:31;;;;;;;3.08;2.03;;;;;;;4.63;64.32;99182.19;10318612;28;20034;-67
2023/12/01 10:37:37;;;;;;;3.35;1.65;;;;;;;4.65;64.08;99173.03;10325617;28;20668;-68
2023/12/01 10:42:39;;;;;;;4.50;2.28;;;;;;;4.62;64.04;99170.72;10327720;28;20069;-68
2023/12/01 10:47:44;;;;;;;4.35;2.15;;;;;;;4.66;64.17;99164.06;10334968;28;20066;-67
2023/12/01 10:52:48;;;;;;;3.13;1.75;;;;;;;4.68;63.83;99148.75;10316526;28;20532;-67
2023/12/01 10:57:52;;;;;;;4.40;2.38;;;;;;;4.70;63.75;99144.09;10315765;28;20037;-68
2023/12/01 11:02:53;;;;;;;3.78;2.50;;;;;;;4.67;63.76;99139.09;10323293;28;20510;-68
2023/12/01 11:07:58;;;;;;;4.80;2.17;;;;;;;4.73;63.84;99148.25;10320152;28;20046;-68
2023/12/01 11:13:21;;;;;;;6.45;3.53;;;;;;;4.66;64.13;99155.22;10322799;28;20045;-68
2023/12/01 11:18:23;;;;;;;7.30;3.78;;;;;;;4.62;64.29;99151.25;10323133;28;20069;-68
2023/12/01 11:23:25;;;;;;;4.30;2.10;;;;;;;4.71;63.48;99148.41;10326853;28;20066;-69
2023/12/01 11:28:45;;;;;;;11.02;4.30;;;;;;;4.81;63.67;99139.41;10320355;28;20042;-67
2023/12/01 11:33:49;;;;;;;5.53;3.38;;;;;;;4.93;62.88;99133.56;10320011;28;20549;-67
2023/12/01 11:39:10;;;;;;;7.47;3.72;;;;;;;4.90;62.98;99143.75;10328097;28;20057;-68
2023/12/01 11:44:25;;;;;;;8.05;4.13;;;;;;;4.91;63.06;99124.09;10317304;28;20050;-66
2023/12/01 11:49:32;;;;;;;9.43;5.15;;;;;;;4.91;63.20;99129.41;10335247;28;20050;-67
2023/12/01 11:54:36;;;;;;;9.33;4.63;;;;;;;4.93;62.92;99130.06;10314700;28;20046;-67
2023/12/01 11:59:38;;;;;;;9.77;4.43;;;;;;;4.86;62.85;99126.41;10327981;28;20042;-68
2023/12/01 12:04:40;;;;;;;10.00;4.65;;;;;;;4.85;62.93;99138.91;10319086;28;20054;-67
2023/12/01 12:09:44;;;;;;;9.07;4.28;;;;;;;4.86;63.26;99145.06;10313953;28;20069;-66
2023/12/01 12:14:46;;;;;;;10.73;4.45;;;;;;;4.73;63.21;99127.78;10329745;28;20052;-63
2023/12/01 12:19:49;;;;;;;8.07;3.83;;;;;;;4.64;62.81;99126.13;10353468;28;20065;-63
2023/12/01 12:24:58;;;;;;;11.35;3.80;;;;;;;4.61;63.28;99149.59;10348826;28;20050;-64
2023/12/01 12:30:01;;;;;;;9.23;3.92;;;;;;;4.48;63.45;99164.25;10350477;28;20124;-65
2023/12/01 12:35:04;;;;;;;15.25;4.95;;;;;;;4.53;62.97;99171.72;10357055;28;20054;-63
2023/12/01 12:40:08;;;;;;;7.95;3.97;;;;;;;4.36;63.10;99181.50;10356322;28;20279;-62
2023/12/01 12:45:09;;;;;;;6.63;3.45;;;;;;;4.33;62.96;99171.22;10351214;28;20050;-63
2023/12/01 12:50:11;;;;;;;9.60;4.45;;;;;;;4.48;62.83;99182.88;10347791;28;20072;-63
2023/12/01 12:55:23;;;;;;;9.85;3.67;;;;;;;4.46;62.73;99176.03;10336858;28;20072;-62
2023/12/01 13:00:25;;;;;;;7.68;3.90;;;;;;;4.46;62.76;99176.84;10350426;28;20369;-64
2023/12/01 13:05:27;;;;;;;7.60;3.72;;;;;;;4.56;62.07;99156.25;10359265;28;20058;-63
2023/12/01 13:10:28;;;;;;;8.68;3.70;;;;;;;4.56;62.40;99169.56;10352833;28;20489;-63
2023/12/01 13:15:29;;;;;;;8.85;4.50;;;;;;;4.45;62.99;99174.38;10356313;28;20478;-62
2023/12/01 13:20:31;;;;;;;7.13;3.15;;;;;;;4.75;62.13;99167.53;10353280;28;20051;-62
2023/12/01 13:25:33;;;;;;;10.32;3.80;;;;;;;4.61;62.46;99173.53;10334965;28;20505;-65
2023/12/01 13:30:34;;;;;;;9.60;3.78;;;;;;;4.63;62.45;99166.22;10327398;28;21270;-65
2023/12/01 13:35:36;;;;;;;10.80;3.85;;;;;;;4.55;63.21;99157.22;10333312;28;20047;-66
2023/12/01 13:40:40;;;;;;;6.72;2.97;;;;;;;4.44;62.93;99146.09;10333601;28;20050;-66
2023/12/01 13:45:42;;;;;;;7.80;3.42;;;;;;;4.48;62.42;99144.75;10327242;28;20031;-66
2023/12/01 13:50:44;;;;;;;9.38;3.45;;;;;;;4.51;62.77;99155.09;10333926;28;20061;-65
2023/12/01 13:55:46;;;;;;;8.57;3.35;;;;;;;4.30;63.23;99166.19;10333315;28;20054;-65
2023/12/01 14:00:58;;;;;;;8.63;3.60;;;;;;;4.26;62.84;99163.03;10324437;28;20042;-64
2023/12/01 14:05:59;;;;;;;8.20;3.58;;;;;;;4.20;62.75;99190.28;10329118;28;20046;-63
2023/12/01 14:11:02;;;;;;;8.15;3.13;;;;;;;4.11;62.73;99188.63;10329081;28;20042;-63
2023/12/01 14:16:04;;;;;;;8.85;3.58;;;;;;;4.01;62.80;99174.63;10339732;28;20092;-63
2023/12/01 14:21:07;;;;;;;8.98;3.53;;;;;;;3.93;62.48;99189.59;10345249;28;20406;-63
2023/12/01 14:26:09;;;;;;;11.20;4.60;;;;;;;3.97;62.74;99198.06;10335860;28;20034;-63
2023/12/01 14:31:10;;;;;;;7.95;3.22;;;;;;;3.85;62.99;99196.69;10340607;28;20038;-63
2023/12/01 14:36:12;;;;;;;7.45;3.60;;;;;;;3.82;62.71;99202.34;10305633;28;20047;-67
2023/12/01 14:41:14;;;;;;;8.18;3.42;;;;;;;3.81;62.54;99206.84;10316891;28;20916;-65
2023/12/01 14:46:16;;;;;;;8.18;3.05;;;;;;;3.75;62.96;99191.50;10320653;28;20043;-67
2023/12/01 14:51:17;;;;;;;7.70;3.15;;;;;;;3.70;62.74;99205.28;10328737;28;20086;-66
2023/12/01 14:56:19;;;;;;;10.25;3.72;;;;;;;3.56;63.32;99209.38;10331415;28;20058;-66
2023/12/01 15:01:21;;;;;;;8.68;3.38;;;;;;;3.45;63.31;99233.56;10316729;28;20034;-67
2023/12/01 15:06:23;;;;;;;14.45;4.78;;;;;;;3.55;62.80;99236.94;10312600;28;20126;-67
2023/12/01 15:11:24;;;;;;;9.63;3.92;;;;;;;3.43;63.66;99237.38;10322371;28;20051;-66
2023/12/01 15:16:26;;;;;;;13.38;4.57;;;;;;;3.41;63.40;99255.28;10324431;28;20057;-66
2023/12/01 15:21:27;;;;;;;8.48;3.72;;;;;;;3.42;63.24;99254.31;10321081;28;20130;-67
2023/12/01 15:26:28;;;;;;;9.68;3.47;;;;;;;3.35;63.64;99264.72;10318590;28;20150;-66
2023/12/01 15:31:30;;;;;;;10.15;5.05;;;;;;;3.23;63.77;99280.06;10324736;28;20639;-66
2023/12/01 15:36:31;;;;;;;11.48;4.55;;;;;;;3.16;63.79;99282.53;10326868;28;20058;-66
2023/12/01 15:41:37;;;;;;;12.77;4.10;;;;;;;3.12;63.91;99261.72;10319969;28;20418;-66
2023/12/01 15:46:38;;;;;;;11.30;4.25;;;;;;;3.17;63.46;99239.03;10339672;28;20084;-62
2023/12/01 15:51:40;;;;;;;11.38;4.43;;;;;;;3.22;63.32;99243.03;10356174;28;20100;-63
2023/12/01 15:56:41;;;;;;;12.00;4.88;;;;;;;3.17;63.83;99248.84;10353609;28;20662;-62
2023/12/01 16:01:42;;;;;;;11.45;4.10;;;;;;;3.22;63.57;99235.06;10335997;28;20046;-62
2023/12/01 16:06:44;;;;;;;12.18;4.22;;;;;;;3.13;63.93;99239.50;10344558;28;20093;-62
2023/12/01 16:11:46;;;;;;;13.23;5.00;;;;;;;3.07;64.04;99216.25;10340241;28;20141;-63
2023/12/01 16:16:47;;;;;;;14.48;4.28;;;;;;;3.08;63.82;99220.53;10334597;28;20122;-61
2023/12/01 16:21:54;;;;;;;12.73;4.93;;;;;;;3.06;64.11;99227.84;10341137;28;20046;-62
2023/12/01 16:26:55;;;;;;;10.38;4.20;;;;;;;3.05;63.71;99228.84;10336219;28;20053;-61
2023/12/01 16:31:56;;;;;;;12.98;4.32;;;;;;;3.00;64.08;99226.63;10341398;28;20715;-62
2023/12/01 16:36:58;;;;;;;12.07;4.03;;;;;;;3.04;63.88;99224.50;10343575;28;20114;-61
2023/12/01 16:41:59;;;;;;;11.15;3.88;;;;;;;2.91;64.29;99251.47;10339684;28;20041;-61
2023/12/01 16:47:01;;;;;;;11.65;5.18;;;;;;;2.89;64.34;99277.34;10341332;28;20042;-62
2023/12/01 16:52:03;;;;;;;11.93;4.75;;;;;;;2.95;63.83;99284.69;10339954;28;20047;-62
2023/12/01 16:57:04;;;;;;;7.45;3.30;;;;;;;2.94;64.19;99291.81;10321574;28;20049;-67
2023/12/01 17:02:06;;;;;;;10.15;3.50;;;;;;;2.95;63.76;99282.84;10313848;28;20539;-67
2023/12/01 17:07:08;;;;;;;8.18;3.88;;;;;;;2.88;64.33;99265.84;10318239;28;20050;-67
2023/12/01 17:12:10;;;;;;;6.95;3.10;;;;;;;2.74;64.40;99264.59;10322005;28;20046;-66
2023/12/01 17:17:11;;;;;;;8.40;2.75;;;;;;;2.78;63.99;99271.28;10312393;28;20074;-67
2023/12/01 17:22:13;;;;;;;6.90;3.13;;;;;;;2.76;64.00;99278.56;10312676;28;20077;-67
2023/12/01 17:27:15;;;;;;;8.82;3.22;;;;;;;2.78;63.87;99273.94;10323912;28;20042;-66
2023/12/01 17:32:18;;;;;;;7.30;2.85;;;;;;;2.78;63.58;99260.66;10317856;28;20104;-66
2023/12/01 17:37:20;;;;;;;6.55;2.83;;;;;;;2.76;63.91;99259.97;10329038;28;20046;-65
2023/12/01 17:42:21;;;;;;;6.60;2.78;;;;;;;2.69;63.91;99266.06;10325397;28;20473;-66
2023/12/01 17:47:23;;;;;;;8.13;3.58;;;;;;;2.70;64.03;99254.44;10326421;28;20109;-66
2023/12/01 17:52:24;;;;;;;9.98;4.07;;;;;;;2.71;64.02;99261.44;10325156;28;20053;-65
2023/12/01 17:57:26;;;;;;;7.03;2.80;;;;;;;2.76;63.60;99262.63;10325370;28;20046;-67
2023/12/01 18:02:27;;;;;;;12.70;4.07;;;;;;;2.69;63.89;99261.56;10324604;28;20054;-64
2023/12/01 18:07:29;;;;;;;11.48;4.72;;;;;;;2.79;63.46;99264.16;10351556;28;20048;-62
2023/12/01 18:12:30;;;;;;;12.95;4.35;;;;;;;2.63;64.04;99264.84;10350827;28;20072;-62
2023/12/01 18:17:32;;;;;;;7.80;4.45;;;;;;;2.62;63.83;99262.31;10341660;28;20505;-62
2023/12/01 18:22:33;;;;;;;9.60;3.90;;;;;;;2.63;63.84;99282.59;10344176;28;20041;-62
2023/12/01 18:27:35;;;;;;;8.50;3.58;;;;;;;2.66;63.76;99275.13;10338208;28;20082;-62
2023/12/01 18:32:36;;;;;;;6.30;3.53;;;;;;;2.66;63.34;99298.19;10336197;28;20050;-62
2023/12/01 18:37:38;;;;;;;8.38;3.30;;;;;;;2.68;63.42;99305.00;10340732;28;20393;-62
2023/12/01 18:42:39;;;;;;;9.02;3.17;;;;;;;2.69;63.40;99297.88;10339562;28;20059;-62
2023/12/01 18:47:41;;;;;;;6.80;3.25;;;;;;;2.69;63.23;99304.03;10346354;28;20057;-62
2023/12/01 18:52:42;;;;;;;9.27;3.60;;;;;;;2.63;63.71;99317.06;10341940;28;20518;-62
2023/12/01 18:57:44;;;;;;;8.48;3.28;;;;;;;2.48;63.82;99341.44;10342272;28;20066;-63
2023/12/01 19:02:46;;;;;;;8.75;3.90;;;;;;;2.48;63.95;99330.81;10344153;28;20365;-63
2023/12/01 19:07:48;;;;;;;7.65;3.58;;;;;;;2.46;63.93;99342.56;10341445;28;20060;-62
2023/12/01 19:12:49;;;;;;;11.73;4.75;;;;;;;2.55;63.97;99339.03;10329361;28;20046;-59
2023/12/01 19:17:51;;;;;;;10.73;4.22;;;;;;;2.45;64.19;99333.78;10320657;28;20065;-59
2023/12/01 19:22:53;;;;;;;9.48;4.15;;;;;;;2.40;63.83;99349.31;10317756;28;20128;-58
2023/12/01 19:27:54;;;;;;;12.40;4.55;;;;;;;2.37;63.89;99339.84;10323215;28;20085;-58
2023/12/01 19:32:55;;;;;;;12.50;4.68;;;;;;;2.28;64.28;99332.75;10309455;28;20046;-59
2023/12/01 19:37:57;;;;;;;11.48;4.50;;;;;;;2.23;64.29;99334.19;10318488;28;20140;-59
2023/12/01 19:42:58;;;;;;;10.15;4.47;;;;;;;2.20;64.32;99347.75;10319430;28;20057;-58
2023/12/01 19:48:00;;;;;;;14.15;5.15;;;;;;;2.17;64.65;99347.06;10318535;28;20052;-59
2023/12/01 19:53:01;;;;;;;11.05;4.93;;;;;;;2.15;64.62;99337.56;10317205;28;20077;-59
2023/12/01 19:58:03;;;;;;;9.20;4.55;;;;;;;2.17;63.89;99328.50;10314745;28;20042;-58
2023/12/01 20:03:04;;;;;;;9.75;3.88;;;;;;;2.15;64.12;99325.16;10314724;28;20105;-58
2023/12/01 20:08:06;;;;;;;8.80;3.80;;;;;;;2.15;64.38;99326.97;10318825;28;20093;-59
2023/12/01 20:13:08;;;;;;;11.30;4.68;;;;;;;2.01;64.93;99333.59;10319244;28;20049;-59
2023/12/01 20:18:10;;;;;;;11.68;4.35;;;;;;;2.03;65.04;99318.38;10322278;28;20046;-59
2023/12/01 20:23:12;;;;;;;11.48;3.90;;;;;;;2.04;64.63;99316.56;10319789;28;20054;-60
2023/12/01 20:28:13;;;;;;;12.25;5.72;;;;;;;2.01;64.44;99314.19;10321146;28;20145;-61
2023/12/01 20:33:15;;;;;;;10.15;3.80;;;;;;;1.94;64.99;99329.88;10314036;28;20046;-59
2023/12/01 20:38:17;;;;;;;12.35;4.57;;;;;;;2.01;64.63;99324.81;10306873;28;20062;-59
2023/12/01 20:43:20;;;;;;;10.20;3.95;;;;;;;2.00;64.84;99334.56;10313789;28;20042;-60
2023/12/01 20:48:21;;;;;;;9.07;3.92;;;;;;;1.98;64.69;99352.44;10322569;28;20168;-59
2023/12/01 20:53:23;;;;;;;8.63;4.15;;;;;;;1.97;64.73;99356.06;10315988;28;20120;-60
2023/12/01 20:58:25;;;;;;;7.35;3.17;;;;;;;1.91;64.86;99357.47;10313609;28;20042;-59
2023/12/01 21:03:26;;;;;;;9.57;4.43;;;;;;;1.92;64.77;99367.09;10325823;28;20047;-60
2023/12/01 21:08:28;;;;;;;11.40;4.65;;;;;;;1.91;64.81;99369.88;10310350;28;20049;-59
2023/12/01 21:13:29;;;;;;;10.85;5.13;;;;;;;1.94;64.39;99364.31;10318449;28;20832;-60
2023/12/01 21:18:31;;;;;;;10.57;4.25;;;;;;;1.81;64.62;99355.84;10318868;28;20050;-59
2023/12/01 21:23:33;;;;;;;10.73;3.92;;;;;;;1.82;64.31;99362.81;10317343;28;20057;-60
2023/12/01 21:28:35;;;;;;;11.50;4.95;;;;;;;1.85;64.78;99362.53;10328985;28;20042;-60
2023/12/01 21:33:36;;;;;;;13.63;4.82;;;;;;;1.84;64.74;99359.06;10323517;28;20674;-58
2023/12/01 21:38:38;;;;;;;12.65;4.43;;;;;;;1.79;64.88;99355.97;10320556;28;20060;-58
2023/12/01 21:43:39;;;;;;;10.15;4.28;;;;;;;1.73;64.54;99354.75;10321794;28;20042;-59
2023/12/01 21:48:43;;;;;;;6.80;3.90;;;;;;;1.62;64.73;99357.59;10326517;28;20052;-59
2023/12/01 21:53:44;;;;;;;11.30;4.30;;;;;;;1.60;65.20;99367.50;10332551;28;20057;-59
2023/12/01 21:58:46;;;;;;;9.05;2.97;;;;;;;1.61;64.62;99366.50;10325607;28;20042;-58
2023/12/01 22:03:48;;;;;;;11.18;4.82;;;;;;;1.58;64.58;99374.75;10319648;28;20057;-58
2023/12/01 22:08:49;;;;;;;9.43;3.80;;;;;;;1.59;64.80;99366.63;10328985;28;20363;-59
2023/12/01 22:13:51;;;;;;;11.45;4.93;;;;;;;1.49;64.83;99354.41;10320238;28;20055;-58
2023/12/01 22:18:52;;;;;;;10.80;4.60;;;;;;;1.43;65.18;99361.09;10322256;28;20628;-58
2023/12/01 22:23:54;;;;;;;11.50;4.55;;;;;;;1.44;65.27;99380.47;10312678;28;20586;-58
2023/12/01 22:28:55;;;;;;;10.20;4.80;;;;;;;1.47;64.38;99372.25;10322088;28;20060;-59
2023/12/01 22:33:57;;;;;;;10.10;4.28;;;;;;;1.45;65.18;99368.91;10317476;28;20041;-59
2023/12/01 22:38:59;;;;;;;11.02;4.90;;;;;;;1.50;64.39;99377.22;10321187;28;20038;-58
2023/12/01 22:44:00;;;;;;;9.25;3.75;;;;;;;1.52;64.63;99383.22;10327943;28;20042;-60
2023/12/01 22:49:02;;;;;;;8.20;3.63;;;;;;;1.40;64.85;99387.84;10330254;28;20041;-61
2023/12/01 22:54:04;;;;;;;11.05;3.65;;;;;;;1.39;64.85;99387.00;10338496;28;20053;-60
2023/12/01 22:59:05;;;;;;;8.52;3.38;;;;;;;1.45;64.17;99395.38;10327960;28;20054;-60
2023/12/01 23:04:07;;;;;;;7.45;3.22;;;;;;;1.45;64.16;99398.84;10331062;28;20046;-60
2023/12/01 23:09:08;;;;;;;8.25;2.95;;;;;;;1.36;65.07;99392.59;10330996;28;20049;-60
2023/12/01 23:14:10;;;;;;;6.40;2.67;;;;;;;1.40;64.55;99395.78;10326025;28;20128;-60
2023/12/01 23:19:11;;;;;;;11.15;3.80;;;;;;;1.43;64.66;99384.09;10328439;28;20050;-60
2023/12/01 23:24:13;;;;;;;7.30;3.75;;;;;;;1.32;64.56;99377.97;10320209;28;20051;-60
2023/12/01 23:29:15;;;;;;;10.07;3.38;;;;;;;1.18;64.91;99381.88;10326964;28;20056;-60
2023/12/01 23:34:16;;;;;;;7.75;3.17;;;;;;;1.15;64.26;99394.56;10322186;28;20052;-60